sensor_id;sensor_type;location;lat;lon;timestamp;temperature;humidity
37408;DHT22;24866;50.248;8.252;2023-03-20T00:02:19;8.50;99.90
37408;DHT22;24866;50.248;8.252;2023-03-20T00:04:49;8.60;99.90
37408;DHT22;24866;50.248;8.252;2023-03-20T00:07:20;8.60;99.90
37408;DHT22;24866;50.248;8.252;2023-03-20T00:09:50;8.50;99.90
37408;DHT22;24866;50.248;8.252;2023-03-20T00:12:24;8.40;99.90
37408;DHT22;24866;50.248;8.252;2023-03-20T00:14:56;8.30;99.90
37408;DHT22;24866;50.248;8.252;2023-03-20T00:17:28;8.40;99.90
37408;DHT22;24866;50.248;8.252;2023-03-20T00:19:58;8.50;99.90
37408;DHT22;24866;50.248;8.252;2023-03-20T00:22:28;8.40;99.90
37408;DHT22;24866;50.248;8.252;2023-03-20T00:25:00;8.40;99.90
37408;DHT22;24866;50.248;8.252;2023-03-20T00:27:30;8.40;99.90
37408;DHT22;24866;50.248;8.252;2023-03-20T00:30:01;8.40;99.90
37408;DHT22;24866;50.248;8.252;2023-03-20T00:32:32;8.30;99.90
37408;DHT22;24866;50.248;8.252;2023-03-20T00:35:16;8.40;99.90
37408;DHT22;24866;50.248;8.252;2023-03-20T00:37:47;8.50;99.90
37408;DHT22;24866;50.248;8.252;2023-03-20T00:40:18;8.60;99.90
37408;DHT22;24866;50.248;8.252;2023-03-20T00:42:51;8.80;99.90
37408;DHT22;24866;50.248;8.252;2023-03-20T00:45:26;8.70;99.90
37408;DHT22;24866;50.248;8.252;2023-03-20T00:47:57;8.60;99.90
37408;DHT22;24866;50.248;8.252;2023-03-20T00:50:30;8.60;99.90
37408;DHT22;24866;50.248;8.252;2023-03-20T00:53:02;8.70;99.90
37408;DHT22;24866;50.248;8.252;2023-03-20T00:55:32;8.60;99.90
37408;DHT22;24866;50.248;8.252;2023-03-20T00:58:02;8.60;99.90
37408;DHT22;24866;50.248;8.252;2023-03-20T01:00:39;8.70;99.90
37408;DHT22;24866;50.248;8.252;2023-03-20T01:03:13;8.70;99.90
37408;DHT22;24866;50.248;8.252;2023-03-20T01:05:44;8.40;99.90
37408;DHT22;24866;50.248;8.252;2023-03-20T01:08:16;8.40;99.90
37408;DHT22;24866;50.248;8.252;2023-03-20T01:10:48;8.50;99.90
37408;DHT22;24866;50.248;8.252;2023-03-20T01:13:20;8.50;99.90
37408;DHT22;24866;50.248;8.252;2023-03-20T01:15:53;8.70;99.90
37408;DHT22;24866;50.248;8.252;2023-03-20T01:18:25;8.70;99.90
37408;DHT22;24866;50.248;8.252;2023-03-20T01:20:55;8.60;99.90
37408;DHT22;24866;50.248;8.252;2023-03-20T01:23:25;8.20;99.90
37408;DHT22;24866;50.248;8.252;2023-03-20T01:25:55;8.20;99.90
37408;DHT22;24866;50.248;8.252;2023-03-20T01:28:27;8.40;99.90
37408;DHT22;24866;50.248;8.252;2023-03-20T01:30:59;8.50;99.90
37408;DHT22;24866;50.248;8.252;2023-03-20T01:33:29;8.70;99.90
37408;DHT22;24866;50.248;8.252;2023-03-20T01:35:59;8.80;99.90
37408;DHT22;24866;50.248;8.252;2023-03-20T01:38:29;8.80;99.90
37408;DHT22;24866;50.248;8.252;2023-03-20T01:41:03;8.80;99.90
37408;DHT22;24866;50.248;8.252;2023-03-20T01:43:35;8.90;99.90
37408;DHT22;24866;50.248;8.252;2023-03-20T01:46:15;8.90;99.90
37408;DHT22;24866;50.248;8.252;2023-03-20T01:48:59;9.00;99.90
37408;DHT22;24866;50.248;8.252;2023-03-20T01:51:30;8.90;99.90
37408;DHT22;24866;50.248;8.252;2023-03-20T01:54:06;8.90;99.90
37408;DHT22;24866;50.248;8.252;2023-03-20T01:56:40;9.00;99.90
37408;DHT22;24866;50.248;8.252;2023-03-20T01:59:14;9.00;99.90
37408;DHT22;24866;50.248;8.252;2023-03-20T02:01:47;9.00;99.90
37408;DHT22;24866;50.248;8.252;2023-03-20T02:04:19;9.00;99.90
37408;DHT22;24866;50.248;8.252;2023-03-20T02:06:53;9.00;99.90
37408;DHT22;24866;50.248;8.252;2023-03-20T02:09:23;9.00;99.90
37408;DHT22;24866;50.248;8.252;2023-03-20T02:11:53;9.00;99.90
37408;DHT22;24866;50.248;8.252;2023-03-20T02:14:25;8.90;99.90
37408;DHT22;24866;50.248;8.252;2023-03-20T02:16:57;8.80;99.90
37408;DHT22;24866;50.248;8.252;2023-03-20T02:19:33;8.90;99.90
37408;DHT22;24866;50.248;8.252;2023-03-20T02:26:06;9.00;99.90
37408;DHT22;24866;50.248;8.252;2023-03-20T02:32:10;8.90;99.90
37408;DHT22;24866;50.248;8.252;2023-03-20T02:35:23;8.80;99.90
37408;DHT22;24866;50.248;8.252;2023-03-20T02:38:19;8.70;99.90
37408;DHT22;24866;50.248;8.252;2023-03-20T02:40:57;8.70;99.90
37408;DHT22;24866;50.248;8.252;2023-03-20T02:43:39;8.80;99.90
37408;DHT22;24866;50.248;8.252;2023-03-20T02:46:20;8.70;99.90
37408;DHT22;24866;50.248;8.252;2023-03-20T02:48:57;8.70;99.90
37408;DHT22;24866;50.248;8.252;2023-03-20T02:51:34;8.70;99.90
37408;DHT22;24866;50.248;8.252;2023-03-20T02:54:11;8.80;99.90
37408;DHT22;24866;50.248;8.252;2023-03-20T02:56:48;8.80;99.90
37408;DHT22;24866;50.248;8.252;2023-03-20T02:59:27;8.80;99.90
37408;DHT22;24866;50.248;8.252;2023-03-20T03:02:03;8.80;99.90
37408;DHT22;24866;50.248;8.252;2023-03-20T03:04:36;8.70;99.90
37408;DHT22;24866;50.248;8.252;2023-03-20T03:07:08;8.70;99.90
37408;DHT22;24866;50.248;8.252;2023-03-20T03:09:44;8.70;99.90
37408;DHT22;24866;50.248;8.252;2023-03-20T03:12:17;8.60;99.90
37408;DHT22;24866;50.248;8.252;2023-03-20T03:14:51;8.50;99.90
37408;DHT22;24866;50.248;8.252;2023-03-20T03:17:24;8.40;99.90
37408;DHT22;24866;50.248;8.252;2023-03-20T03:19:58;8.40;99.90
37408;DHT22;24866;50.248;8.252;2023-03-20T03:22:34;8.40;99.90
37408;DHT22;24866;50.248;8.252;2023-03-20T03:25:10;8.30;99.90
37408;DHT22;24866;50.248;8.252;2023-03-20T03:27:43;8.30;99.90
37408;DHT22;24866;50.248;8.252;2023-03-20T03:30:20;8.30;99.90
37408;DHT22;24866;50.248;8.252;2023-03-20T03:33:10;8.30;99.90
37408;DHT22;24866;50.248;8.252;2023-03-20T03:35:43;8.20;99.90
37408;DHT22;24866;50.248;8.252;2023-03-20T03:38:29;8.10;99.90
37408;DHT22;24866;50.248;8.252;2023-03-20T03:41:17;8.00;99.90
37408;DHT22;24866;50.248;8.252;2023-03-20T03:43:52;8.00;99.90
37408;DHT22;24866;50.248;8.252;2023-03-20T03:46:32;7.90;99.90
37408;DHT22;24866;50.248;8.252;2023-03-20T03:49:07;7.80;99.90
37408;DHT22;24866;50.248;8.252;2023-03-20T03:51:41;7.90;99.90
37408;DHT22;24866;50.248;8.252;2023-03-20T03:54:16;7.90;99.90
37408;DHT22;24866;50.248;8.252;2023-03-20T03:56:49;7.90;99.90
37408;DHT22;24866;50.248;8.252;2023-03-20T03:59:23;7.80;99.90
37408;DHT22;24866;50.248;8.252;2023-03-20T04:01:55;7.90;99.90
37408;DHT22;24866;50.248;8.252;2023-03-20T04:04:28;7.70;99.90
37408;DHT22;24866;50.248;8.252;2023-03-20T04:06:59;7.70;99.90
37408;DHT22;24866;50.248;8.252;2023-03-20T04:09:29;7.80;99.90
37408;DHT22;24866;50.248;8.252;2023-03-20T04:12:04;7.80;99.90
37408;DHT22;24866;50.248;8.252;2023-03-20T04:14:34;7.70;99.90
37408;DHT22;24866;50.248;8.252;2023-03-20T04:17:04;7.70;99.90
37408;DHT22;24866;50.248;8.252;2023-03-20T04:19:34;7.60;99.90
37408;DHT22;24866;50.248;8.252;2023-03-20T04:22:04;7.60;99.90
37408;DHT22;24866;50.248;8.252;2023-03-20T04:24:34;7.70;99.90
37408;DHT22;24866;50.248;8.252;2023-03-20T04:27:05;7.70;99.90
37408;DHT22;24866;50.248;8.252;2023-03-20T04:29:35;7.60;99.90
37408;DHT22;24866;50.248;8.252;2023-03-20T04:32:06;7.60;99.90
37408;DHT22;24866;50.248;8.252;2023-03-20T04:34:35;7.60;99.90
37408;DHT22;24866;50.248;8.252;2023-03-20T04:37:06;7.60;99.90
37408;DHT22;24866;50.248;8.252;2023-03-20T04:39:37;7.70;99.90
37408;DHT22;24866;50.248;8.252;2023-03-20T04:42:08;7.60;99.90
37408;DHT22;24866;50.248;8.252;2023-03-20T04:44:39;7.70;99.90
37408;DHT22;24866;50.248;8.252;2023-03-20T04:47:09;7.60;99.90
37408;DHT22;24866;50.248;8.252;2023-03-20T04:49:39;7.60;99.90
37408;DHT22;24866;50.248;8.252;2023-03-20T04:52:09;7.70;99.90
37408;DHT22;24866;50.248;8.252;2023-03-20T04:54:39;7.70;99.90
37408;DHT22;24866;50.248;8.252;2023-03-20T04:57:10;7.70;99.90
37408;DHT22;24866;50.248;8.252;2023-03-20T04:59:40;7.70;99.90
37408;DHT22;24866;50.248;8.252;2023-03-20T05:02:10;7.70;99.90
37408;DHT22;24866;50.248;8.252;2023-03-20T05:04:42;7.80;99.90
37408;DHT22;24866;50.248;8.252;2023-03-20T05:07:12;8.00;99.90
37408;DHT22;24866;50.248;8.252;2023-03-20T05:09:43;8.10;99.90
37408;DHT22;24866;50.248;8.252;2023-03-20T05:12:16;8.20;99.90
37408;DHT22;24866;50.248;8.252;2023-03-20T05:14:46;8.10;99.90
37408;DHT22;24866;50.248;8.252;2023-03-20T05:17:16;8.00;99.90
37408;DHT22;24866;50.248;8.252;2023-03-20T05:19:47;8.10;99.90
37408;DHT22;24866;50.248;8.252;2023-03-20T05:22:17;8.10;99.90
37408;DHT22;24866;50.248;8.252;2023-03-20T05:24:47;8.20;99.90
37408;DHT22;24866;50.248;8.252;2023-03-20T05:27:19;8.30;99.90
37408;DHT22;24866;50.248;8.252;2023-03-20T05:29:49;8.40;99.90
37408;DHT22;24866;50.248;8.252;2023-03-20T05:32:19;8.40;99.90
37408;DHT22;24866;50.248;8.252;2023-03-20T05:34:49;8.50;99.90
37408;DHT22;24866;50.248;8.252;2023-03-20T05:37:20;8.60;99.90
37408;DHT22;24866;50.248;8.252;2023-03-20T05:39:50;8.60;99.90
37408;DHT22;24866;50.248;8.252;2023-03-20T05:42:21;8.40;99.90
37408;DHT22;24866;50.248;8.252;2023-03-20T05:44:51;8.40;99.90
37408;DHT22;24866;50.248;8.252;2023-03-20T05:47:21;8.20;99.90
37408;DHT22;24866;50.248;8.252;2023-03-20T05:49:51;8.20;99.90
37408;DHT22;24866;50.248;8.252;2023-03-20T05:52:22;8.10;99.90
37408;DHT22;24866;50.248;8.252;2023-03-20T05:54:52;8.20;99.90
37408;DHT22;24866;50.248;8.252;2023-03-20T05:57:24;8.20;99.90
37408;DHT22;24866;50.248;8.252;2023-03-20T05:59:54;7.90;99.90
37408;DHT22;24866;50.248;8.252;2023-03-20T06:02:24;7.90;99.90
37408;DHT22;24866;50.248;8.252;2023-03-20T06:04:55;8.00;99.90
37408;DHT22;24866;50.248;8.252;2023-03-20T06:07:25;8.00;99.90
37408;DHT22;24866;50.248;8.252;2023-03-20T06:09:56;8.00;99.90
37408;DHT22;24866;50.248;8.252;2023-03-20T06:12:27;8.10;99.90
37408;DHT22;24866;50.248;8.252;2023-03-20T06:14:57;8.10;99.90
37408;DHT22;24866;50.248;8.252;2023-03-20T06:17:27;8.00;99.90
37408;DHT22;24866;50.248;8.252;2023-03-20T06:19:57;8.10;99.90
37408;DHT22;24866;50.248;8.252;2023-03-20T06:22:27;8.20;99.90
37408;DHT22;24866;50.248;8.252;2023-03-20T06:24:57;8.10;99.90
37408;DHT22;24866;50.248;8.252;2023-03-20T06:27:28;8.10;99.90
37408;DHT22;24866;50.248;8.252;2023-03-20T06:29:58;8.10;99.90
37408;DHT22;24866;50.248;8.252;2023-03-20T06:32:29;8.30;99.90
37408;DHT22;24866;50.248;8.252;2023-03-20T06:34:59;8.40;99.90
37408;DHT22;24866;50.248;8.252;2023-03-20T06:37:29;8.50;99.90
37408;DHT22;24866;50.248;8.252;2023-03-20T06:39:59;8.40;99.90
37408;DHT22;24866;50.248;8.252;2023-03-20T06:42:30;8.30;99.90
37408;DHT22;24866;50.248;8.252;2023-03-20T06:45:01;8.40;99.90
37408;DHT22;24866;50.248;8.252;2023-03-20T06:47:31;8.50;99.90
37408;DHT22;24866;50.248;8.252;2023-03-20T06:50:01;8.50;99.90
37408;DHT22;24866;50.248;8.252;2023-03-20T06:52:31;8.50;99.90
37408;DHT22;24866;50.248;8.252;2023-03-20T06:55:01;8.40;99.90
37408;DHT22;24866;50.248;8.252;2023-03-20T06:57:33;8.30;99.90
37408;DHT22;24866;50.248;8.252;2023-03-20T07:00:04;8.40;99.90
37408;DHT22;24866;50.248;8.252;2023-03-20T07:02:35;8.30;99.90
37408;DHT22;24866;50.248;8.252;2023-03-20T07:05:07;8.20;99.90
37408;DHT22;24866;50.248;8.252;2023-03-20T07:07:38;8.30;99.90
37408;DHT22;24866;50.248;8.252;2023-03-20T07:10:09;8.40;99.90
37408;DHT22;24866;50.248;8.252;2023-03-20T07:12:41;8.50;99.90
37408;DHT22;24866;50.248;8.252;2023-03-20T07:15:12;8.50;99.90
37408;DHT22;24866;50.248;8.252;2023-03-20T07:17:42;8.60;99.90
37408;DHT22;24866;50.248;8.252;2023-03-20T07:20:12;8.60;99.90
37408;DHT22;24866;50.248;8.252;2023-03-20T07:22:43;8.60;99.90
37408;DHT22;24866;50.248;8.252;2023-03-20T07:25:14;8.60;99.90
37408;DHT22;24866;50.248;8.252;2023-03-20T07:27:45;8.60;99.90
37408;DHT22;24866;50.248;8.252;2023-03-20T07:30:19;8.50;99.90
37408;DHT22;24866;50.248;8.252;2023-03-20T07:32:48;8.60;99.90
37408;DHT22;24866;50.248;8.252;2023-03-20T07:35:19;8.70;99.90
37408;DHT22;24866;50.248;8.252;2023-03-20T07:37:49;8.80;99.90
37408;DHT22;24866;50.248;8.252;2023-03-20T07:40:19;8.70;99.90
37408;DHT22;24866;50.248;8.252;2023-03-20T07:42:51;8.60;99.90
37408;DHT22;24866;50.248;8.252;2023-03-20T07:45:21;8.60;99.90
37408;DHT22;24866;50.248;8.252;2023-03-20T07:47:51;8.60;99.90
37408;DHT22;24866;50.248;8.252;2023-03-20T07:50:21;8.70;99.90
37408;DHT22;24866;50.248;8.252;2023-03-20T07:52:51;8.80;99.90
37408;DHT22;24866;50.248;8.252;2023-03-20T07:55:21;9.00;99.90
37408;DHT22;24866;50.248;8.252;2023-03-20T07:57:53;8.90;99.90
37408;DHT22;24866;50.248;8.252;2023-03-20T08:00:27;9.00;99.90
37408;DHT22;24866;50.248;8.252;2023-03-20T08:02:57;9.00;99.90
37408;DHT22;24866;50.248;8.252;2023-03-20T08:05:27;8.90;99.90
37408;DHT22;24866;50.248;8.252;2023-03-20T08:07:57;9.00;99.90
37408;DHT22;24866;50.248;8.252;2023-03-20T08:10:27;8.90;99.90
37408;DHT22;24866;50.248;8.252;2023-03-20T08:12:58;9.10;99.90
37408;DHT22;24866;50.248;8.252;2023-03-20T08:15:28;9.20;99.90
37408;DHT22;24866;50.248;8.252;2023-03-20T08:17:58;9.30;99.90
37408;DHT22;24866;50.248;8.252;2023-03-20T08:20:29;9.60;99.90
37408;DHT22;24866;50.248;8.252;2023-03-20T08:22:59;9.80;99.90
37408;DHT22;24866;50.248;8.252;2023-03-20T08:25:29;10.00;99.90
37408;DHT22;24866;50.248;8.252;2023-03-20T08:28:02;10.00;99.90
37408;DHT22;24866;50.248;8.252;2023-03-20T08:30:32;10.10;99.90
37408;DHT22;24866;50.248;8.252;2023-03-20T08:33:03;10.30;99.90
37408;DHT22;24866;50.248;8.252;2023-03-20T08:35:33;10.10;99.90
37408;DHT22;24866;50.248;8.252;2023-03-20T08:38:03;9.70;99.90
37408;DHT22;24866;50.248;8.252;2023-03-20T08:40:33;9.70;99.90
37408;DHT22;24866;50.248;8.252;2023-03-20T08:43:04;9.70;99.90
37408;DHT22;24866;50.248;8.252;2023-03-20T08:45:34;9.90;99.90
37408;DHT22;24866;50.248;8.252;2023-03-20T08:48:04;10.00;99.90
37408;DHT22;24866;50.248;8.252;2023-03-20T08:50:35;9.80;99.90
37408;DHT22;24866;50.248;8.252;2023-03-20T08:53:05;9.60;99.90
37408;DHT22;24866;50.248;8.252;2023-03-20T08:55:35;9.60;99.90
37408;DHT22;24866;50.248;8.252;2023-03-20T08:58:07;9.90;99.90
37408;DHT22;24866;50.248;8.252;2023-03-20T09:00:37;9.80;99.90
37408;DHT22;24866;50.248;8.252;2023-03-20T09:03:10;9.90;99.90
37408;DHT22;24866;50.248;8.252;2023-03-20T09:05:43;9.90;99.90
37408;DHT22;24866;50.248;8.252;2023-03-20T09:08:14;9.80;99.90
37408;DHT22;24866;50.248;8.252;2023-03-20T09:10:46;9.90;99.90
37408;DHT22;24866;50.248;8.252;2023-03-20T09:13:19;10.10;99.90
37408;DHT22;24866;50.248;8.252;2023-03-20T09:15:50;10.00;99.90
37408;DHT22;24866;50.248;8.252;2023-03-20T09:18:20;10.20;99.90
37408;DHT22;24866;50.248;8.252;2023-03-20T09:20:50;10.40;99.90
37408;DHT22;24866;50.248;8.252;2023-03-20T09:23:21;10.30;99.90
37408;DHT22;24866;50.248;8.252;2023-03-20T09:25:51;10.40;99.90
37408;DHT22;24866;50.248;8.252;2023-03-20T09:28:22;10.50;99.90
37408;DHT22;24866;50.248;8.252;2023-03-20T09:30:54;10.70;99.90
37408;DHT22;24866;50.248;8.252;2023-03-20T09:33:25;10.40;99.90
37408;DHT22;24866;50.248;8.252;2023-03-20T09:35:55;10.50;99.90
37408;DHT22;24866;50.248;8.252;2023-03-20T09:38:25;10.50;99.90
37408;DHT22;24866;50.248;8.252;2023-03-20T09:40:57;10.50;99.90
37408;DHT22;24866;50.248;8.252;2023-03-20T09:43:45;10.50;99.90
37408;DHT22;24866;50.248;8.252;2023-03-20T09:46:32;10.40;99.90
37408;DHT22;24866;50.248;8.252;2023-03-20T09:49:12;10.60;99.90
37408;DHT22;24866;50.248;8.252;2023-03-20T09:51:49;10.40;99.90
37408;DHT22;24866;50.248;8.252;2023-03-20T09:54:23;10.40;99.90
37408;DHT22;24866;50.248;8.252;2023-03-20T09:56:56;10.40;99.90
37408;DHT22;24866;50.248;8.252;2023-03-20T09:59:29;10.40;99.90
37408;DHT22;24866;50.248;8.252;2023-03-20T10:02:06;10.30;99.90
37408;DHT22;24866;50.248;8.252;2023-03-20T10:04:37;10.40;99.90
37408;DHT22;24866;50.248;8.252;2023-03-20T10:07:10;10.50;99.90
37408;DHT22;24866;50.248;8.252;2023-03-20T10:09:42;10.60;99.90
37408;DHT22;24866;50.248;8.252;2023-03-20T10:12:24;10.60;99.90
37408;DHT22;24866;50.248;8.252;2023-03-20T10:15:02;10.80;99.90
37408;DHT22;24866;50.248;8.252;2023-03-20T10:17:50;10.90;99.90
37408;DHT22;24866;50.248;8.252;2023-03-20T10:20:28;11.00;99.90
37408;DHT22;24866;50.248;8.252;2023-03-20T10:23:05;11.20;99.90
37408;DHT22;24866;50.248;8.252;2023-03-20T10:25:39;11.10;99.90
37408;DHT22;24866;50.248;8.252;2023-03-20T10:28:12;11.30;99.90
37408;DHT22;24866;50.248;8.252;2023-03-20T10:30:58;11.10;99.90
37408;DHT22;24866;50.248;8.252;2023-03-20T10:33:41;11.10;99.90
37408;DHT22;24866;50.248;8.252;2023-03-20T10:36:25;11.00;99.90
37408;DHT22;24866;50.248;8.252;2023-03-20T10:39:02;10.80;99.90
37408;DHT22;24866;50.248;8.252;2023-03-20T10:41:37;10.90;99.90
37408;DHT22;24866;50.248;8.252;2023-03-20T10:44:13;11.00;99.90
37408;DHT22;24866;50.248;8.252;2023-03-20T10:46:50;11.30;99.90
37408;DHT22;24866;50.248;8.252;2023-03-20T10:49:30;11.30;99.90
37408;DHT22;24866;50.248;8.252;2023-03-20T10:52:03;11.00;99.90
37408;DHT22;24866;50.248;8.252;2023-03-20T10:54:39;11.00;99.90
37408;DHT22;24866;50.248;8.252;2023-03-20T10:57:14;11.20;99.90
37408;DHT22;24866;50.248;8.252;2023-03-20T10:59:48;11.10;99.90
37408;DHT22;24866;50.248;8.252;2023-03-20T11:02:21;11.20;99.90
37408;DHT22;24866;50.248;8.252;2023-03-20T11:04:52;11.10;99.90
37408;DHT22;24866;50.248;8.252;2023-03-20T11:07:25;11.20;99.90
37408;DHT22;24866;50.248;8.252;2023-03-20T11:10:13;11.10;99.90
37408;DHT22;24866;50.248;8.252;2023-03-20T11:12:45;11.20;99.90
37408;DHT22;24866;50.248;8.252;2023-03-20T11:15:21;11.40;99.90
37408;DHT22;24866;50.248;8.252;2023-03-20T11:17:54;11.20;99.90
37408;DHT22;24866;50.248;8.252;2023-03-20T11:20:27;11.30;99.90
37408;DHT22;24866;50.248;8.252;2023-03-20T11:23:03;11.40;99.90
37408;DHT22;24866;50.248;8.252;2023-03-20T11:25:36;11.90;99.90
37408;DHT22;24866;50.248;8.252;2023-03-20T11:28:23;12.10;99.90
37408;DHT22;24866;50.248;8.252;2023-03-20T11:30:59;11.90;99.90
37408;DHT22;24866;50.248;8.252;2023-03-20T11:33:32;11.70;99.90
37408;DHT22;24866;50.248;8.252;2023-03-20T11:36:11;12.10;99.90
37408;DHT22;24866;50.248;8.252;2023-03-20T11:38:43;12.40;99.90
37408;DHT22;24866;50.248;8.252;2023-03-20T11:41:22;12.40;99.90
37408;DHT22;24866;50.248;8.252;2023-03-20T11:43:53;12.40;99.90
37408;DHT22;24866;50.248;8.252;2023-03-20T11:46:27;12.50;99.90
37408;DHT22;24866;50.248;8.252;2023-03-20T11:49:20;12.40;99.90
37408;DHT22;24866;50.248;8.252;2023-03-20T11:51:53;12.10;99.90
37408;DHT22;24866;50.248;8.252;2023-03-20T11:54:24;12.10;99.90
37408;DHT22;24866;50.248;8.252;2023-03-20T11:56:56;12.30;99.90
37408;DHT22;24866;50.248;8.252;2023-03-20T11:59:29;12.00;99.90
37408;DHT22;24866;50.248;8.252;2023-03-20T12:02:03;12.20;99.90
37408;DHT22;24866;50.248;8.252;2023-03-20T12:04:35;11.90;99.90
37408;DHT22;24866;50.248;8.252;2023-03-20T12:07:12;11.80;99.90
37408;DHT22;24866;50.248;8.252;2023-03-20T12:09:46;11.60;99.90
37408;DHT22;24866;50.248;8.252;2023-03-20T12:12:26;12.00;99.90
37408;DHT22;24866;50.248;8.252;2023-03-20T12:15:12;11.90;99.90
37408;DHT22;24866;50.248;8.252;2023-03-20T12:17:46;12.00;99.90
37408;DHT22;24866;50.248;8.252;2023-03-20T12:20:31;12.00;99.90
37408;DHT22;24866;50.248;8.252;2023-03-20T12:23:11;11.80;99.90
37408;DHT22;24866;50.248;8.252;2023-03-20T12:25:48;11.50;99.90
37408;DHT22;24866;50.248;8.252;2023-03-20T12:28:23;11.70;99.90
37408;DHT22;24866;50.248;8.252;2023-03-20T12:31:03;11.60;99.90
37408;DHT22;24866;50.248;8.252;2023-03-20T12:33:41;11.80;99.90
37408;DHT22;24866;50.248;8.252;2023-03-20T12:36:14;11.80;99.90
37408;DHT22;24866;50.248;8.252;2023-03-20T12:38:46;11.70;99.90
37408;DHT22;24866;50.248;8.252;2023-03-20T12:41:21;11.60;99.90
37408;DHT22;24866;50.248;8.252;2023-03-20T12:44:10;11.60;99.90
37408;DHT22;24866;50.248;8.252;2023-03-20T12:46:45;11.90;99.90
37408;DHT22;24866;50.248;8.252;2023-03-20T12:49:25;11.80;99.90
37408;DHT22;24866;50.248;8.252;2023-03-20T12:52:06;11.70;99.90
37408;DHT22;24866;50.248;8.252;2023-03-20T12:55:03;11.70;99.90
37408;DHT22;24866;50.248;8.252;2023-03-20T12:57:42;11.50;99.90
37408;DHT22;24866;50.248;8.252;2023-03-20T13:00:20;11.50;99.90
37408;DHT22;24866;50.248;8.252;2023-03-20T13:03:04;11.50;99.90
37408;DHT22;24866;50.248;8.252;2023-03-20T13:05:43;11.40;99.90
37408;DHT22;24866;50.248;8.252;2023-03-20T13:08:36;11.50;99.90
37408;DHT22;24866;50.248;8.252;2023-03-20T13:11:15;11.50;99.90
37408;DHT22;24866;50.248;8.252;2023-03-20T13:13:51;11.60;99.90
37408;DHT22;24866;50.248;8.252;2023-03-20T13:16:31;11.70;99.90
37408;DHT22;24866;50.248;8.252;2023-03-20T13:19:09;11.60;99.90
37408;DHT22;24866;50.248;8.252;2023-03-20T13:21:47;11.60;99.90
37408;DHT22;24866;50.248;8.252;2023-03-20T13:24:28;11.50;99.90
37408;DHT22;24866;50.248;8.252;2023-03-20T13:27:14;11.40;99.90
37408;DHT22;24866;50.248;8.252;2023-03-20T13:29:51;11.50;99.90
37408;DHT22;24866;50.248;8.252;2023-03-20T13:32:30;11.40;99.90
37408;DHT22;24866;50.248;8.252;2023-03-20T13:35:16;11.30;99.90
37408;DHT22;24866;50.248;8.252;2023-03-20T13:37:53;11.50;99.90
37408;DHT22;24866;50.248;8.252;2023-03-20T13:40:28;11.50;99.90
37408;DHT22;24866;50.248;8.252;2023-03-20T13:43:04;11.50;99.90
37408;DHT22;24866;50.248;8.252;2023-03-20T13:45:38;11.40;99.90
37408;DHT22;24866;50.248;8.252;2023-03-20T13:48:22;11.60;99.90
37408;DHT22;24866;50.248;8.252;2023-03-20T13:50:58;11.50;99.90
37408;DHT22;24866;50.248;8.252;2023-03-20T13:53:36;11.40;99.90
37408;DHT22;24866;50.248;8.252;2023-03-20T13:56:14;11.40;99.90
37408;DHT22;24866;50.248;8.252;2023-03-20T13:59:00;11.30;99.90
37408;DHT22;24866;50.248;8.252;2023-03-20T14:01:42;11.40;99.90
37408;DHT22;24866;50.248;8.252;2023-03-20T14:04:17;11.50;99.90
37408;DHT22;24866;50.248;8.252;2023-03-20T14:06:53;11.40;99.90
37408;DHT22;24866;50.248;8.252;2023-03-20T14:09:30;11.30;99.90
37408;DHT22;24866;50.248;8.252;2023-03-20T14:12:04;11.40;99.90
37408;DHT22;24866;50.248;8.252;2023-03-20T14:14:44;11.20;99.90
37408;DHT22;24866;50.248;8.252;2023-03-20T14:17:17;11.40;99.90
37408;DHT22;24866;50.248;8.252;2023-03-20T14:19:49;11.20;99.90
37408;DHT22;24866;50.248;8.252;2023-03-20T14:22:21;11.10;99.90
37408;DHT22;24866;50.248;8.252;2023-03-20T14:24:56;11.10;99.90
37408;DHT22;24866;50.248;8.252;2023-03-20T14:27:34;11.10;99.90
37408;DHT22;24866;50.248;8.252;2023-03-20T14:30:39;11.10;99.90
37408;DHT22;24866;50.248;8.252;2023-03-20T14:33:25;11.10;99.90
37408;DHT22;24866;50.248;8.252;2023-03-20T14:36:17;11.10;99.90
37408;DHT22;24866;50.248;8.252;2023-03-20T14:38:57;11.10;99.90
37408;DHT22;24866;50.248;8.252;2023-03-20T14:41:34;10.80;8.70
37408;DHT22;24866;50.248;8.252;2023-03-20T14:44:20;10.80;1.00
37408;DHT22;24866;50.248;8.252;2023-03-20T14:46:54;10.70;1.00
37408;DHT22;24866;50.248;8.252;2023-03-20T14:49:36;10.90;99.90
37408;DHT22;24866;50.248;8.252;2023-03-20T14:52:24;11.10;1.00
37408;DHT22;24866;50.248;8.252;2023-03-20T14:55:13;11.00;71.90
37408;DHT22;24866;50.248;8.252;2023-03-20T14:57:44;10.80;99.90
37408;DHT22;24866;50.248;8.252;2023-03-20T15:00:20;10.80;99.90
37408;DHT22;24866;50.248;8.252;2023-03-20T15:02:52;10.90;99.90
37408;DHT22;24866;50.248;8.252;2023-03-20T15:05:25;11.00;99.90
37408;DHT22;24866;50.248;8.252;2023-03-20T15:08:04;10.70;1.00
37408;DHT22;24866;50.248;8.252;2023-03-20T15:10:36;10.70;99.90
37408;DHT22;24866;50.248;8.252;2023-03-20T15:13:13;10.60;99.90
37408;DHT22;24866;50.248;8.252;2023-03-20T15:15:53;10.70;99.90
37408;DHT22;24866;50.248;8.252;2023-03-20T15:18:26;10.80;99.90
37408;DHT22;24866;50.248;8.252;2023-03-20T15:20:57;10.60;99.90
37408;DHT22;24866;50.248;8.252;2023-03-20T15:23:27;10.80;99.90
37408;DHT22;24866;50.248;8.252;2023-03-20T15:25:59;10.80;99.90
37408;DHT22;24866;50.248;8.252;2023-03-20T15:28:29;10.80;1.00
37408;DHT22;24866;50.248;8.252;2023-03-20T15:31:02;10.70;1.00
37408;DHT22;24866;50.248;8.252;2023-03-20T15:33:34;10.80;1.00
37408;DHT22;24866;50.248;8.252;2023-03-20T15:36:10;10.80;1.00
37408;DHT22;24866;50.248;8.252;2023-03-20T15:38:44;10.80;1.00
37408;DHT22;24866;50.248;8.252;2023-03-20T15:41:24;10.70;1.00
37408;DHT22;24866;50.248;8.252;2023-03-20T15:44:02;10.70;1.00
37408;DHT22;24866;50.248;8.252;2023-03-20T15:46:34;10.50;99.90
37408;DHT22;24866;50.248;8.252;2023-03-20T15:49:04;10.50;99.90
37408;DHT22;24866;50.248;8.252;2023-03-20T15:51:34;10.40;99.90
37408;DHT22;24866;50.248;8.252;2023-03-20T15:54:05;10.30;99.90
37408;DHT22;24866;50.248;8.252;2023-03-20T15:56:37;10.30;99.90
37408;DHT22;24866;50.248;8.252;2023-03-20T15:59:13;10.30;4.40
37408;DHT22;24866;50.248;8.252;2023-03-20T16:01:47;10.20;1.00
37408;DHT22;24866;50.248;8.252;2023-03-20T16:04:18;10.30;1.00
37408;DHT22;24866;50.248;8.252;2023-03-20T16:06:53;10.20;1.00
37408;DHT22;24866;50.248;8.252;2023-03-20T16:09:24;10.20;1.00
37408;DHT22;24866;50.248;8.252;2023-03-20T16:11:56;10.30;1.00
37408;DHT22;24866;50.248;8.252;2023-03-20T16:14:30;10.20;1.00
37408;DHT22;24866;50.248;8.252;2023-03-20T16:17:02;10.20;1.00
37408;DHT22;24866;50.248;8.252;2023-03-20T16:19:33;10.10;1.00
37408;DHT22;24866;50.248;8.252;2023-03-20T16:22:18;10.10;1.00
37408;DHT22;24866;50.248;8.252;2023-03-20T16:24:50;9.90;99.90
37408;DHT22;24866;50.248;8.252;2023-03-20T16:27:26;9.90;1.00
37408;DHT22;24866;50.248;8.252;2023-03-20T16:29:56;10.00;1.00
37408;DHT22;24866;50.248;8.252;2023-03-20T16:32:35;9.90;1.00